sensor_id;sensor_type;location;lat;lon;timestamp;pressure;altitude;pressure_sealevel;temperature;humidity
32747;BME280;19118;50.860;13.662;2023-04-09T00:04:32;97762.56;;;-2.35;100.00
32747;BME280;19118;50.860;13.662;2023-04-09T00:09:32;97760.25;;;-2.39;100.00
32747;BME280;19118;50.860;13.662;2023-04-09T00:14:33;97758.25;;;-2.48;100.00
32747;BME280;19118;50.860;13.662;2023-04-09T00:19:33;97757.44;;;-2.49;100.00
32747;BME280;19118;50.860;13.662;2023-04-09T00:24:33;97753.16;;;-2.50;100.00
32747;BME280;19118;50.860;13.662;2023-04-09T00:29:34;97753.34;;;-2.53;100.00
32747;BME280;19118;50.860;13.662;2023-04-09T00:34:34;97747.94;;;-2.63;100.00
32747;BME280;19118;50.860;13.662;2023-04-09T00:39:35;97745.34;;;-2.63;100.00
32747;BME280;19118;50.860;13.662;2023-04-09T00:44:36;97747.81;;;-2.61;100.00
32747;BME280;19118;50.860;13.662;2023-04-09T00:49:36;97742.75;;;-2.63;100.00
32747;BME280;19118;50.860;13.662;2023-04-09T00:54:37;97751.34;;;-2.62;100.00
32747;BME280;19118;50.860;13.662;2023-04-09T00:59:37;97751.41;;;-2.49;100.00
32747;BME280;19118;50.860;13.662;2023-04-09T01:04:40;97754.25;;;-2.27;100.00
32747;BME280;19118;50.860;13.662;2023-04-09T01:10:02;97747.69;;;-2.06;100.00
32747;BME280;19118;50.860;13.662;2023-04-09T01:15:10;97753.34;;;-1.73;100.00
32747;BME280;19118;50.860;13.662;2023-04-09T01:20:18;97758.13;;;-1.55;100.00
32747;BME280;19118;50.860;13.662;2023-04-09T01:25:44;97744.66;;;-1.47;100.00
32747;BME280;19118;50.860;13.662;2023-04-09T01:30:54;97746.19;;;-1.44;100.00
32747;BME280;19118;50.860;13.662;2023-04-09T01:35:57;97745.28;;;-1.43;100.00
32747;BME280;19118;50.860;13.662;2023-04-09T01:40:59;97748.38;;;-1.38;100.00
32747;BME280;19118;50.860;13.662;2023-04-09T01:46:01;97745.47;;;-1.47;100.00
32747;BME280;19118;50.860;13.662;2023-04-09T01:51:02;97754.16;;;-1.48;100.00
32747;BME280;19118;50.860;13.662;2023-04-09T01:56:03;97750.44;;;-1.43;100.00
32747;BME280;19118;50.860;13.662;2023-04-09T02:01:32;97751.38;;;-1.32;100.00
32747;BME280;19118;50.860;13.662;2023-04-09T02:11:39;97758.72;;;-1.26;100.00
32747;BME280;19118;50.860;13.662;2023-04-09T02:16:40;97751.78;;;-1.25;100.00
32747;BME280;19118;50.860;13.662;2023-04-09T02:21:41;97757.78;;;-1.25;100.00
32747;BME280;19118;50.860;13.662;2023-04-09T02:26:41;97764.97;;;-1.28;100.00
32747;BME280;19118;50.860;13.662;2023-04-09T02:31:42;97768.72;;;-1.32;100.00
32747;BME280;19118;50.860;13.662;2023-04-09T02:36:44;97763.41;;;-1.31;100.00
32747;BME280;19118;50.860;13.662;2023-04-09T02:41:44;97767.88;;;-1.33;100.00
32747;BME280;19118;50.860;13.662;2023-04-09T02:46:46;97755.03;;;-1.34;100.00
32747;BME280;19118;50.860;13.662;2023-04-09T02:51:47;97756.16;;;-1.38;100.00
32747;BME280;19118;50.860;13.662;2023-04-09T02:56:47;97759.34;;;-1.48;100.00
32747;BME280;19118;50.860;13.662;2023-04-09T03:01:48;97759.78;;;-1.54;100.00
32747;BME280;19118;50.860;13.662;2023-04-09T03:06:48;97757.09;;;-1.65;100.00
32747;BME280;19118;50.860;13.662;2023-04-09T03:11:50;97765.47;;;-1.61;100.00
32747;BME280;19118;50.860;13.662;2023-04-09T03:16:51;97754.00;;;-1.57;100.00
32747;BME280;19118;50.860;13.662;2023-04-09T03:21:52;97760.94;;;-1.58;100.00
32747;BME280;19118;50.860;13.662;2023-04-09T03:26:57;97757.69;;;-1.49;100.00
32747;BME280;19118;50.860;13.662;2023-04-09T03:31:57;97765.19;;;-1.31;100.00
32747;BME280;19118;50.860;13.662;2023-04-09T03:36:58;97754.91;;;-1.20;100.00
32747;BME280;19118;50.860;13.662;2023-04-09T03:42:02;97761.84;;;-1.08;100.00
32747;BME280;19118;50.860;13.662;2023-04-09T03:47:11;97764.63;;;-0.98;100.00
32747;BME280;19118;50.860;13.662;2023-04-09T03:52:12;97774.25;;;-0.88;100.00
32747;BME280;19118;50.860;13.662;2023-04-09T03:57:17;97765.16;;;-0.69;100.00
32747;BME280;19118;50.860;13.662;2023-04-09T04:02:21;97772.53;;;-0.63;100.00
32747;BME280;19118;50.860;13.662;2023-04-09T04:07:31;97768.94;;;-0.49;100.00
32747;BME280;19118;50.860;13.662;2023-04-09T04:12:36;97758.94;;;-0.43;100.00
32747;BME280;19118;50.860;13.662;2023-04-09T04:17:41;97768.88;;;-0.37;100.00
32747;BME280;19118;50.860;13.662;2023-04-09T04:22:50;97762.31;;;-0.30;100.00
32747;BME280;19118;50.860;13.662;2023-04-09T04:27:51;97763.91;;;-0.16;100.00
32747;BME280;19118;50.860;13.662;2023-04-09T04:32:55;97756.72;;;-0.12;100.00
32747;BME280;19118;50.860;13.662;2023-04-09T04:37:56;97761.47;;;-0.06;100.00
32747;BME280;19118;50.860;13.662;2023-04-09T04:42:57;97759.16;;;0.02;100.00
32747;BME280;19118;50.860;13.662;2023-04-09T04:47:58;97760.84;;;0.14;100.00
32747;BME280;19118;50.860;13.662;2023-04-09T04:52:58;97763.59;;;0.24;100.00
32747;BME280;19118;50.860;13.662;2023-04-09T04:58:03;97765.16;;;0.38;100.00
32747;BME280;19118;50.860;13.662;2023-04-09T05:03:14;97755.22;;;0.54;100.00
32747;BME280;19118;50.860;13.662;2023-04-09T05:08:23;97770.16;;;0.63;100.00
32747;BME280;19118;50.860;13.662;2023-04-09T05:13:26;97766.63;;;0.86;100.00
32747;BME280;19118;50.860;13.662;2023-04-09T05:18:27;97764.00;;;0.98;100.00
32747;BME280;19118;50.860;13.662;2023-04-09T05:23:28;97765.41;;;1.13;100.00
32747;BME280;19118;50.860;13.662;2023-04-09T05:28:28;97758.31;;;1.37;100.00
32747;BME280;19118;50.860;13.662;2023-04-09T05:33:39;97752.09;;;1.61;100.00
32747;BME280;19118;50.860;13.662;2023-04-09T05:38:48;97768.38;;;1.85;100.00
32747;BME280;19118;50.860;13.662;2023-04-09T05:43:48;97773.19;;;2.22;100.00
32747;BME280;19118;50.860;13.662;2023-04-09T05:48:49;97765.88;;;2.88;100.00
32747;BME280;19118;50.860;13.662;2023-04-09T05:53:49;97755.63;;;3.46;100.00
32747;BME280;19118;50.860;13.662;2023-04-09T05:58:50;97743.03;;;4.09;100.00
32747;BME280;19118;50.860;13.662;2023-04-09T06:03:51;97729.94;;;4.75;100.00
32747;BME280;19118;50.860;13.662;2023-04-09T06:08:52;97720.00;;;5.16;100.00
32747;BME280;19118;50.860;13.662;2023-04-09T06:13:52;97721.66;;;5.44;100.00
32747;BME280;19118;50.860;13.662;2023-04-09T06:18:52;97733.97;;;5.34;100.00
32747;BME280;19118;50.860;13.662;2023-04-09T06:23:53;97736.69;;;5.15;100.00
32747;BME280;19118;50.860;13.662;2023-04-09T06:28:54;97753.31;;;4.96;100.00
32747;BME280;19118;50.860;13.662;2023-04-09T06:33:54;97755.69;;;4.99;100.00
32747;BME280;19118;50.860;13.662;2023-04-09T06:38:54;97770.00;;;4.48;100.00
32747;BME280;19118;50.860;13.662;2023-04-09T06:43:55;97766.53;;;4.67;100.00
32747;BME280;19118;50.860;13.662;2023-04-09T06:48:55;97767.84;;;4.81;100.00
32747;BME280;19118;50.860;13.662;2023-04-09T06:53:56;97780.25;;;4.88;100.00
32747;BME280;19118;50.860;13.662;2023-04-09T06:58:56;97773.88;;;5.01;100.00
32747;BME280;19118;50.860;13.662;2023-04-09T07:03:56;97780.66;;;4.93;100.00
32747;BME280;19118;50.860;13.662;2023-04-09T07:08:57;97778.94;;;5.12;100.00
32747;BME280;19118;50.860;13.662;2023-04-09T07:13:58;97786.81;;;5.39;100.00
32747;BME280;19118;50.860;13.662;2023-04-09T07:18:58;97794.16;;;5.36;100.00
32747;BME280;19118;50.860;13.662;2023-04-09T07:23:58;97782.91;;;5.43;100.00
32747;BME280;19118;50.860;13.662;2023-04-09T07:28:59;97795.25;;;5.61;100.00
32747;BME280;19118;50.860;13.662;2023-04-09T07:33:59;97800.50;;;5.61;100.00
32747;BME280;19118;50.860;13.662;2023-04-09T07:38:59;97801.75;;;5.84;100.00
32747;BME280;19118;50.860;13.662;2023-04-09T07:44:00;97799.53;;;5.89;100.00
32747;BME280;19118;50.860;13.662;2023-04-09T07:49:02;97803.63;;;6.01;100.00
32747;BME280;19118;50.860;13.662;2023-04-09T07:54:02;97804.75;;;6.17;100.00
32747;BME280;19118;50.860;13.662;2023-04-09T07:59:03;97800.75;;;6.48;100.00
32747;BME280;19118;50.860;13.662;2023-04-09T08:04:04;97804.50;;;6.28;100.00
32747;BME280;19118;50.860;13.662;2023-04-09T08:09:04;97806.63;;;6.68;100.00
32747;BME280;19118;50.860;13.662;2023-04-09T08:14:05;97808.22;;;7.05;100.00
32747;BME280;19118;50.860;13.662;2023-04-09T08:19:06;97815.81;;;7.42;100.00
32747;BME280;19118;50.860;13.662;2023-04-09T08:24:06;97824.13;;;7.63;100.00
32747;BME280;19118;50.860;13.662;2023-04-09T08:29:09;97831.44;;;7.43;100.00
32747;BME280;19118;50.860;13.662;2023-04-09T08:34:09;97823.88;;;7.40;100.00
32747;BME280;19118;50.860;13.662;2023-04-09T08:39:10;97821.69;;;7.36;100.00
32747;BME280;19118;50.860;13.662;2023-04-09T08:44:10;97817.31;;;7.86;100.00
32747;BME280;19118;50.860;13.662;2023-04-09T08:49:11;97819.28;;;7.93;100.00
32747;BME280;19118;50.860;13.662;2023-04-09T08:54:16;97834.09;;;7.85;100.00
32747;BME280;19118;50.860;13.662;2023-04-09T08:59:19;97844.84;;;8.08;100.00
32747;BME280;19118;50.860;13.662;2023-04-09T09:04:19;97840.09;;;8.20;100.00
32747;BME280;19118;50.860;13.662;2023-04-09T09:09:20;97844.25;;;8.31;100.00
32747;BME280;19118;50.860;13.662;2023-04-09T09:14:21;97844.13;;;7.90;100.00
32747;BME280;19118;50.860;13.662;2023-04-09T09:24:24;97845.06;;;8.31;100.00
32747;BME280;19118;50.860;13.662;2023-04-09T09:29:25;97834.06;;;8.60;100.00
32747;BME280;19118;50.860;13.662;2023-04-09T09:34:25;97838.22;;;8.95;100.00
32747;BME280;19118;50.860;13.662;2023-04-09T09:39:42;97841.16;;;8.68;94.69
32747;BME280;19118;50.860;13.662;2023-04-09T09:44:43;97837.19;;;9.21;95.80
32747;BME280;19118;50.860;13.662;2023-04-09T09:49:43;97836.53;;;8.94;93.17
32747;BME280;19118;50.860;13.662;2023-04-09T09:54:47;97830.44;;;9.66;87.49
32747;BME280;19118;50.860;13.662;2023-04-09T09:59:59;97835.88;;;10.03;84.36
32747;BME280;19118;50.860;13.662;2023-04-09T10:05:02;97833.75;;;10.75;79.11
32747;BME280;19118;50.860;13.662;2023-04-09T10:10:06;97835.88;;;11.03;76.45
32747;BME280;19118;50.860;13.662;2023-04-09T10:15:08;97828.41;;;11.21;74.20
32747;BME280;19118;50.860;13.662;2023-04-09T10:25:12;97820.69;;;12.79;70.26
32747;BME280;19118;50.860;13.662;2023-04-09T10:30:36;97822.22;;;12.24;70.61
32747;BME280;19118;50.860;13.662;2023-04-09T10:35:37;97827.63;;;12.16;71.60
32747;BME280;19118;50.860;13.662;2023-04-09T10:40:47;97818.09;;;12.58;68.84
32747;BME280;19118;50.860;13.662;2023-04-09T10:45:51;97810.03;;;12.72;67.58
32747;BME280;19118;50.860;13.662;2023-04-09T10:50:54;97811.66;;;10.91;70.38
32747;BME280;19118;50.860;13.662;2023-04-09T10:55:54;97808.38;;;12.07;71.82
32747;BME280;19118;50.860;13.662;2023-04-09T11:01:00;97807.44;;;12.15;71.36
32747;BME280;19118;50.860;13.662;2023-04-09T11:06:05;97808.56;;;11.76;73.99
32747;BME280;19118;50.860;13.662;2023-04-09T11:11:08;97815.41;;;12.15;74.15
32747;BME280;19118;50.860;13.662;2023-04-09T11:16:10;97808.72;;;12.40;71.54
32747;BME280;19118;50.860;13.662;2023-04-09T11:21:11;97818.91;;;12.58;69.82
32747;BME280;19118;50.860;13.662;2023-04-09T11:26:12;97813.72;;;12.99;68.90
32747;BME280;19118;50.860;13.662;2023-04-09T11:31:13;97821.97;;;13.11;68.02
32747;BME280;19118;50.860;13.662;2023-04-09T11:36:13;97824.34;;;12.14;72.46
32747;BME280;19118;50.860;13.662;2023-04-09T11:41:13;97821.13;;;12.18;69.75
32747;BME280;19118;50.860;13.662;2023-04-09T11:46:14;97823.19;;;12.59;69.39
32747;BME280;19118;50.860;13.662;2023-04-09T11:51:15;97808.69;;;13.04;68.11
32747;BME280;19118;50.860;13.662;2023-04-09T11:56:15;97820.94;;;11.69;71.28
32747;BME280;19118;50.860;13.662;2023-04-09T12:01:16;97813.63;;;11.42;70.30
32747;BME280;19118;50.860;13.662;2023-04-09T12:06:19;97817.47;;;11.83;70.86
32747;BME280;19118;50.860;13.662;2023-04-09T12:11:26;97812.53;;;11.36;69.12
32747;BME280;19118;50.860;13.662;2023-04-09T12:16:29;97822.03;;;11.60;70.84
32747;BME280;19118;50.860;13.662;2023-04-09T12:21:51;97819.91;;;11.70;68.57
32747;BME280;19118;50.860;13.662;2023-04-09T12:26:55;97824.94;;;11.50;67.88
32747;BME280;19118;50.860;13.662;2023-04-09T12:31:56;97818.72;;;11.43;68.18
32747;BME280;19118;50.860;13.662;2023-04-09T12:36:56;97823.22;;;12.23;67.68
32747;BME280;19118;50.860;13.662;2023-04-09T12:41:57;97819.41;;;12.47;64.89
32747;BME280;19118;50.860;13.662;2023-04-09T12:46:57;97822.56;;;12.36;66.28
32747;BME280;19118;50.860;13.662;2023-04-09T12:51:57;97810.75;;;12.60;65.20
32747;BME280;19118;50.860;13.662;2023-04-09T12:56:58;97808.38;;;13.49;63.37
32747;BME280;19118;50.860;13.662;2023-04-09T13:01:58;97804.97;;;14.09;63.49
32747;BME280;19118;50.860;13.662;2023-04-09T13:06:58;97795.19;;;14.36;58.45
32747;BME280;19118;50.860;13.662;2023-04-09T13:12:00;97790.56;;;13.84;61.35
32747;BME280;19118;50.860;13.662;2023-04-09T13:17:01;97786.06;;;13.91;57.59
32747;BME280;19118;50.860;13.662;2023-04-09T13:22:01;97787.00;;;13.70;59.21
32747;BME280;19118;50.860;13.662;2023-04-09T13:27:03;97791.25;;;13.58;60.77
32747;BME280;19118;50.860;13.662;2023-04-09T13:32:04;97785.28;;;12.65;65.59
32747;BME280;19118;50.860;13.662;2023-04-09T13:37:09;97783.00;;;12.90;60.30
32747;BME280;19118;50.860;13.662;2023-04-09T13:42:10;97781.97;;;13.40;60.00
32747;BME280;19118;50.860;13.662;2023-04-09T13:47:11;97775.56;;;13.28;60.09
32747;BME280;19118;50.860;13.662;2023-04-09T13:52:12;97777.69;;;13.46;61.55
32747;BME280;19118;50.860;13.662;2023-04-09T13:57:13;97772.59;;;12.61;63.76
32747;BME280;19118;50.860;13.662;2023-04-09T14:02:13;97769.44;;;12.50;60.72
32747;BME280;19118;50.860;13.662;2023-04-09T14:07:13;97769.50;;;12.85;61.85
32747;BME280;19118;50.860;13.662;2023-04-09T14:12:14;97767.47;;;12.87;62.97
32747;BME280;19118;50.860;13.662;2023-04-09T14:17:15;97760.22;;;12.46;64.47
32747;BME280;19118;50.860;13.662;2023-04-09T14:22:15;97762.91;;;12.74;63.25
32747;BME280;19118;50.860;13.662;2023-04-09T14:27:15;97766.50;;;12.45;63.37
32747;BME280;19118;50.860;13.662;2023-04-09T14:32:16;97770.94;;;12.17;64.13
32747;BME280;19118;50.860;13.662;2023-04-09T14:37:16;97768.41;;;12.09;63.17
32747;BME280;19118;50.860;13.662;2023-04-09T14:42:17;97781.47;;;11.59;65.39
32747;BME280;19118;50.860;13.662;2023-04-09T14:47:18;97766.88;;;11.49;66.52
32747;BME280;19118;50.860;13.662;2023-04-09T14:52:18;97760.31;;;11.45;66.89
32747;BME280;19118;50.860;13.662;2023-04-09T14:57:18;97760.47;;;11.58;66.99
32747;BME280;19118;50.860;13.662;2023-04-09T15:02:19;97761.13;;;11.45;66.12
32747;BME280;19118;50.860;13.662;2023-04-09T15:07:19;97750.41;;;11.68;68.00
32747;BME280;19118;50.860;13.662;2023-04-09T15:12:20;97744.97;;;11.76;68.87
32747;BME280;19118;50.860;13.662;2023-04-09T15:17:20;97745.47;;;11.80;68.34
32747;BME280;19118;50.860;13.662;2023-04-09T15:22:20;97743.28;;;11.69;68.45
32747;BME280;19118;50.860;13.662;2023-04-09T15:27:21;97743.53;;;11.74;65.44
32747;BME280;19118;50.860;13.662;2023-04-09T15:32:21;97740.38;;;11.49;67.46
32747;BME280;19118;50.860;13.662;2023-04-09T15:37:21;97735.53;;;11.52;67.58
32747;BME280;19118;50.860;13.662;2023-04-09T15:42:22;97726.69;;;11.96;65.79
32747;BME280;19118;50.860;13.662;2023-04-09T15:47:22;97736.50;;;11.66;68.40
32747;BME280;19118;50.860;13.662;2023-04-09T15:52:22;97725.91;;;11.66;66.54
32747;BME280;19118;50.860;13.662;2023-04-09T15:57:23;97740.44;;;11.70;63.46
32747;BME280;19118;50.860;13.662;2023-04-09T16:02:23;97735.16;;;11.41;63.55
32747;BME280;19118;50.860;13.662;2023-04-09T16:07:24;97741.94;;;11.28;64.17
32747;BME280;19118;50.860;13.662;2023-04-09T16:12:24;97727.69;;;11.44;65.31
32747;BME280;19118;50.860;13.662;2023-04-09T16:17:25;97736.84;;;11.27;67.97
32747;BME280;19118;50.860;13.662;2023-04-09T16:22:26;97739.66;;;11.25;67.78
32747;BME280;19118;50.860;13.662;2023-04-09T16:27:27;97740.38;;;11.19;66.88
32747;BME280;19118;50.860;13.662;2023-04-09T16:32:28;97740.84;;;10.93;68.14
32747;BME280;19118;50.860;13.662;2023-04-09T16:37:28;97733.84;;;10.48;68.98
32747;BME280;19118;50.860;13.662;2023-04-09T16:42:30;97738.84;;;10.43;70.42
32747;BME280;19118;50.860;13.662;2023-04-09T16:47:32;97730.75;;;10.22;69.64
32747;BME280;19118;50.860;13.662;2023-04-09T16:52:32;97737.16;;;9.96;68.89
32747;BME280;19118;50.860;13.662;2023-04-09T16:57:34;97735.66;;;9.71;72.93
32747;BME280;19118;50.860;13.662;2023-04-09T17:02:36;97732.66;;;9.74;72.27
32747;BME280;19118;50.860;13.662;2023-04-09T17:07:36;97744.50;;;9.86;71.93
32747;BME280;19118;50.860;13.662;2023-04-09T17:12:37;97751.00;;;9.75;76.31
32747;BME280;19118;50.860;13.662;2023-04-09T17:17:38;97746.56;;;9.76;77.42
32747;BME280;19118;50.860;13.662;2023-04-09T17:22:38;97749.69;;;9.71;75.48
32747;BME280;19118;50.860;13.662;2023-04-09T17:27:39;97746.94;;;9.65;73.84
32747;BME280;19118;50.860;13.662;2023-04-09T17:32:39;97752.97;;;9.42;76.74
32747;BME280;19118;50.860;13.662;2023-04-09T17:37:40;97751.91;;;9.20;79.12
32747;BME280;19118;50.860;13.662;2023-04-09T17:42:40;97747.19;;;8.99;86.35
32747;BME280;19118;50.860;13.662;2023-04-09T17:47:41;97746.41;;;8.74;89.38
32747;BME280;19118;50.860;13.662;2023-04-09T17:52:41;97748.91;;;8.52;92.71
32747;BME280;19118;50.860;13.662;2023-04-09T17:57:41;97742.63;;;8.20;100.00
32747;BME280;19118;50.860;13.662;2023-04-09T18:02:42;97736.81;;;7.84;100.00
32747;BME280;19118;50.860;13.662;2023-04-09T18:07:42;97748.88;;;7.44;100.00
32747;BME280;19118;50.860;13.662;2023-04-09T18:12:43;97747.91;;;7.03;100.00
32747;BME280;19118;50.860;13.662;2023-04-09T18:17:43;97741.09;;;6.66;100.00
32747;BME280;19118;50.860;13.662;2023-04-09T18:22:44;97738.38;;;6.50;100.00
32747;BME280;19118;50.860;13.662;2023-04-09T18:27:45;97741.16;;;6.31;100.00
32747;BME280;19118;50.860;13.662;2023-04-09T18:32:45;97742.19;;;6.12;100.00
32747;BME280;19118;50.860;13.662;2023-04-09T18:37:47;97742.19;;;5.94;100.00
32747;BME280;19118;50.860;13.662;2023-04-09T18:42:49;97746.28;;;5.79;100.00
32747;BME280;19118;50.860;13.662;2023-04-09T18:47:51;97752.41;;;5.70;100.00
32747;BME280;19118;50.860;13.662;2023-04-09T18:52:51;97747.53;;;5.57;100.00
32747;BME280;19118;50.860;13.662;2023-04-09T18:57:52;97750.56;;;5.52;100.00
32747;BME280;19118;50.860;13.662;2023-04-09T19:02:53;97748.19;;;5.32;100.00
32747;BME280;19118;50.860;13.662;2023-04-09T19:07:57;97750.66;;;5.06;100.00
32747;BME280;19118;50.860;13.662;2023-04-09T19:12:58;97745.31;;;4.97;100.00
32747;BME280;19118;50.860;13.662;2023-04-09T19:17:59;97743.09;;;5.03;100.00
32747;BME280;19118;50.860;13.662;2023-04-09T19:22:59;97736.13;;;5.21;100.00
32747;BME280;19118;50.860;13.662;2023-04-09T19:28:00;97740.88;;;5.35;100.00
32747;BME280;19118;50.860;13.662;2023-04-09T19:33:00;97742.03;;;5.50;100.00
32747;BME280;19118;50.860;13.662;2023-04-09T19:38:00;97742.22;;;5.67;100.00
32747;BME280;19118;50.860;13.662;2023-04-09T19:43:01;97731.88;;;5.83;100.00
32747;BME280;19118;50.860;13.662;2023-04-09T19:48:01;97735.94;;;5.95;100.00
32747;BME280;19118;50.860;13.662;2023-04-09T19:53:01;97739.31;;;6.05;100.00
32747;BME280;19118;50.860;13.662;2023-04-09T19:58:02;97736.94;;;6.12;100.00
32747;BME280;19118;50.860;13.662;2023-04-09T20:03:02;97724.31;;;6.16;100.00
32747;BME280;19118;50.860;13.662;2023-04-09T20:08:04;97725.88;;;6.08;100.00
32747;BME280;19118;50.860;13.662;2023-04-09T20:13:07;97730.19;;;5.92;100.00
32747;BME280;19118;50.860;13.662;2023-04-09T20:18:08;97724.31;;;5.80;100.00
32747;BME280;19118;50.860;13.662;2023-04-09T20:23:08;97735.53;;;5.72;100.00
32747;BME280;19118;50.860;13.662;2023-04-09T20:28:08;97736.13;;;5.66;100.00
32747;BME280;19118;50.860;13.662;2023-04-09T20:33:09;97733.28;;;5.60;100.00
32747;BME280;19118;50.860;13.662;2023-04-09T20:38:09;97731.53;;;5.50;100.00
32747;BME280;19118;50.860;13.662;2023-04-09T20:43:09;97729.88;;;5.49;100.00
32747;BME280;19118;50.860;13.662;2023-04-09T20:48:10;97725.16;;;5.53;100.00
32747;BME280;19118;50.860;13.662;2023-04-09T20:53:10;97718.88;;;5.64;100.00
32747;BME280;19118;50.860;13.662;2023-04-09T20:58:12;97717.47;;;5.69;100.00
32747;BME280;19118;50.860;13.662;2023-04-09T21:03:12;97724.06;;;5.55;100.00
32747;BME280;19118;50.860;13.662;2023-04-09T21:08:13;97727.81;;;5.25;100.00
32747;BME280;19118;50.860;13.662;2023-04-09T21:13:14;97723.31;;;4.81;100.00
32747;BME280;19118;50.860;13.662;2023-04-09T21:18:15;97738.03;;;4.45;100.00
32747;BME280;19118;50.860;13.662;2023-04-09T21:23:16;97728.69;;;4.13;100.00
32747;BME280;19118;50.860;13.662;2023-04-09T21:28:16;97731.19;;;3.86;100.00
32747;BME280;19118;50.860;13.662;2023-04-09T21:33:17;97738.22;;;3.75;100.00
32747;BME280;19118;50.860;13.662;2023-04-09T21:38:17;97746.91;;;3.86;100.00
32747;BME280;19118;50.860;13.662;2023-04-09T21:43:17;97753.50;;;4.09;100.00
32747;BME280;19118;50.860;13.662;2023-04-09T21:48:18;97743.00;;;4.28;100.00
32747;BME280;19118;50.860;13.662;2023-04-09T21:53:18;97745.75;;;4.36;100.00
32747;BME280;19118;50.860;13.662;2023-04-09T21:58:18;97743.81;;;4.38;100.00
32747;BME280;19118;50.860;13.662;2023-04-09T22:03:19;97739.69;;;4.26;100.00
32747;BME280;19118;50.860;13.662;2023-04-09T22:08:19;97734.38;;;3.99;100.00
32747;BME280;19118;50.860;13.662;2023-04-09T22:13:20;97737.50;;;3.64;100.00
32747;BME280;19118;50.860;13.662;2023-04-09T22:18:20;97738.81;;;3.39;100.00
32747;BME280;19118;50.860;13.662;2023-04-09T22:23:20;97742.66;;;3.35;100.00
32747;BME280;19118;50.860;13.662;2023-04-09T22:28:21;97729.31;;;3.18;100.00
32747;BME280;19118;50.860;13.662;2023-04-09T22:33:21;97742.28;;;2.99;100.00
32747;BME280;19118;50.860;13.662;2023-04-09T22:38:22;97748.47;;;2.98;100.00
32747;BME280;19118;50.860;13.662;2023-04-09T22:43:22;97740.38;;;3.01;100.00
32747;BME280;19118;50.860;13.662;2023-04-09T22:48:22;97735.41;;;2.98;100.00
32747;BME280;19118;50.860;13.662;2023-04-09T22:53:23;97735.31;;;2.79;100.00
32747;BME280;19118;50.860;13.662;2023-04-09T22:58:23;97736.91;;;2.60;100.00
32747;BME280;19118;50.860;13.662;2023-04-09T23:03:23;97740.50;;;2.48;100.00
32747;BME280;19118;50.860;13.662;2023-04-09T23:08:24;97747.91;;;2.22;100.00
32747;BME280;19118;50.860;13.662;2023-04-09T23:13:25;97750.88;;;1.97;100.00
32747;BME280;19118;50.860;13.662;2023-04-09T23:18:25;97745.47;;;1.89;100.00
32747;BME280;19118;50.860;13.662;2023-04-09T23:23:25;97739.81;;;1.84;100.00
32747;BME280;19118;50.860;13.662;2023-04-09T23:28:26;97730.56;;;1.80;100.00
32747;BME280;19118;50.860;13.662;2023-04-09T23:33:27;97728.00;;;1.68;100.00
32747;BME280;19118;50.860;13.662;2023-04-09T23:38:27;97726.28;;;1.46;100.00
32747;BME280;19118;50.860;13.662;2023-04-09T23:43:27;97721.59;;;1.29;100.00
32747;BME280;19118;50.860;13.662;2023-04-09T23:48:28;97723.66;;;1.14;100.00
32747;BME280;19118;50.860;13.662;2023-04-09T23:53:28;97729.44;;;1.07;100.00
32747;BME280;19118;50.860;13.662;2023-04-09T23:58:28;97726.47;;;1.00;100.00
